Alplaus, New York
Current Conditions -  °F | °C
As of 3:51 PM on Saturday 25 Oct 2014 (Local Time) from KALB Reporting Station
Broken Clouds Broken Clouds  
Wind Chill: 62°   Ceiling: 25000
Heat Index: 62°   Visibility: 10mi
Dew Point: 45°   Wind: 7mph
Humidity: 53%   Direction: 150°SSE
Pressure: 29.62"   Gusts: NA
Location:  42.86°N, 73.9°W
Report Text: KALB 251951Z 15006KT 10SM FEW048 FEW060 BKN250 17/07 A2962 RMK AO2 SLP031 BKN V SCT T01670072 $
Loading
Personal Weather Stations






























Interactive Weather Map New forecast layout! Learn more

10-Day Weather Forecast

Advertisements
Track Severe Weather on mobile